sensor_id;sensor_type;location;lat;lon;timestamp;temperature;humidity
6054;DHT22;3055;50.886;14.814;2023-07-16T00:00:45;24.90;1.00
6054;DHT22;3055;50.886;14.814;2023-07-16T00:03:12;24.90;1.00
6054;DHT22;3055;50.886;14.814;2023-07-16T00:05:39;24.90;1.00
6054;DHT22;3055;50.886;14.814;2023-07-16T00:08:06;24.80;1.00
6054;DHT22;3055;50.886;14.814;2023-07-16T00:10:36;24.70;1.00
6054;DHT22;3055;50.886;14.814;2023-07-16T00:13:03;24.70;1.00
6054;DHT22;3055;50.886;14.814;2023-07-16T00:15:31;24.60;1.00
6054;DHT22;3055;50.886;14.814;2023-07-16T00:17:58;24.40;1.00
6054;DHT22;3055;50.886;14.814;2023-07-16T00:20:25;24.30;1.00
6054;DHT22;3055;50.886;14.814;2023-07-16T00:22:52;24.20;1.00
6054;DHT22;3055;50.886;14.814;2023-07-16T00:25:21;24.10;1.00
6054;DHT22;3055;50.886;14.814;2023-07-16T00:27:50;24.10;1.00
6054;DHT22;3055;50.886;14.814;2023-07-16T00:30:17;24.10;1.00
6054;DHT22;3055;50.886;14.814;2023-07-16T00:32:44;24.00;1.00
6054;DHT22;3055;50.886;14.814;2023-07-16T00:35:11;24.00;1.00
6054;DHT22;3055;50.886;14.814;2023-07-16T00:37:38;24.00;1.00
6054;DHT22;3055;50.886;14.814;2023-07-16T00:40:07;24.10;1.00
6054;DHT22;3055;50.886;14.814;2023-07-16T00:42:34;24.30;1.00
6054;DHT22;3055;50.886;14.814;2023-07-16T00:45:09;24.40;1.00
6054;DHT22;3055;50.886;14.814;2023-07-16T00:47:36;24.50;1.00
6054;DHT22;3055;50.886;14.814;2023-07-16T00:50:03;24.60;1.00
6054;DHT22;3055;50.886;14.814;2023-07-16T00:52:31;24.60;1.00
6054;DHT22;3055;50.886;14.814;2023-07-16T00:54:58;24.60;1.00
6054;DHT22;3055;50.886;14.814;2023-07-16T00:57:25;24.70;1.00
6054;DHT22;3055;50.886;14.814;2023-07-16T00:59:52;24.70;1.00
6054;DHT22;3055;50.886;14.814;2023-07-16T01:02:21;24.60;1.00
6054;DHT22;3055;50.886;14.814;2023-07-16T01:04:48;24.60;1.00
6054;DHT22;3055;50.886;14.814;2023-07-16T01:07:16;24.50;1.00
6054;DHT22;3055;50.886;14.814;2023-07-16T01:09:45;24.60;1.00
6054;DHT22;3055;50.886;14.814;2023-07-16T01:12:13;24.50;1.00
6054;DHT22;3055;50.886;14.814;2023-07-16T01:14:40;24.60;1.00
6054;DHT22;3055;50.886;14.814;2023-07-16T01:17:07;24.60;1.00
6054;DHT22;3055;50.886;14.814;2023-07-16T01:19:36;24.60;1.00
6054;DHT22;3055;50.886;14.814;2023-07-16T01:22:23;24.60;1.00
6054;DHT22;3055;50.886;14.814;2023-07-16T01:25:16;24.60;1.00
6054;DHT22;3055;50.886;14.814;2023-07-16T01:28:02;24.60;1.00
6054;DHT22;3055;50.886;14.814;2023-07-16T01:30:34;24.80;1.00
6054;DHT22;3055;50.886;14.814;2023-07-16T01:33:05;25.10;1.00
6054;DHT22;3055;50.886;14.814;2023-07-16T01:35:33;25.20;1.00
6054;DHT22;3055;50.886;14.814;2023-07-16T01:38:00;25.30;1.00
6054;DHT22;3055;50.886;14.814;2023-07-16T01:40:28;25.30;1.00
6054;DHT22;3055;50.886;14.814;2023-07-16T01:42:56;25.30;1.00
6054;DHT22;3055;50.886;14.814;2023-07-16T01:45:23;25.30;1.00
6054;DHT22;3055;50.886;14.814;2023-07-16T01:48:00;25.20;1.00
6054;DHT22;3055;50.886;14.814;2023-07-16T01:50:30;25.00;1.00
6054;DHT22;3055;50.886;14.814;2023-07-16T01:52:57;24.90;1.00
6054;DHT22;3055;50.886;14.814;2023-07-16T01:55:24;24.80;1.00
6054;DHT22;3055;50.886;14.814;2023-07-16T01:57:51;24.60;1.00
6054;DHT22;3055;50.886;14.814;2023-07-16T02:00:18;24.50;1.00
6054;DHT22;3055;50.886;14.814;2023-07-16T02:02:45;24.50;1.00
6054;DHT22;3055;50.886;14.814;2023-07-16T02:05:14;24.30;1.00
6054;DHT22;3055;50.886;14.814;2023-07-16T02:07:41;24.10;1.00
6054;DHT22;3055;50.886;14.814;2023-07-16T02:10:09;24.10;1.00
6054;DHT22;3055;50.886;14.814;2023-07-16T02:12:36;24.00;1.00
6054;DHT22;3055;50.886;14.814;2023-07-16T02:15:03;23.90;1.00
6054;DHT22;3055;50.886;14.814;2023-07-16T02:17:31;23.90;1.00
6054;DHT22;3055;50.886;14.814;2023-07-16T02:19:58;23.80;1.00
6054;DHT22;3055;50.886;14.814;2023-07-16T02:22:27;23.80;1.00
6054;DHT22;3055;50.886;14.814;2023-07-16T02:24:54;23.70;1.00
6054;DHT22;3055;50.886;14.814;2023-07-16T02:27:21;23.60;1.00
6054;DHT22;3055;50.886;14.814;2023-07-16T02:29:48;23.50;1.00
6054;DHT22;3055;50.886;14.814;2023-07-16T02:32:15;23.50;1.00
6054;DHT22;3055;50.886;14.814;2023-07-16T02:34:43;23.40;1.00
6054;DHT22;3055;50.886;14.814;2023-07-16T02:37:10;23.30;1.00
6054;DHT22;3055;50.886;14.814;2023-07-16T02:39:39;23.20;1.00
6054;DHT22;3055;50.886;14.814;2023-07-16T02:42:06;23.10;1.00
6054;DHT22;3055;50.886;14.814;2023-07-16T02:44:33;23.00;1.00
6054;DHT22;3055;50.886;14.814;2023-07-16T02:47:04;22.90;1.00
6054;DHT22;3055;50.886;14.814;2023-07-16T02:49:31;22.80;1.00
6054;DHT22;3055;50.886;14.814;2023-07-16T02:51:58;22.80;7.70
6054;DHT22;3055;50.886;14.814;2023-07-16T02:54:25;22.70;28.40
6054;DHT22;3055;50.886;14.814;2023-07-16T02:56:53;22.70;30.20
6054;DHT22;3055;50.886;14.814;2023-07-16T02:59:20;22.60;56.30
6054;DHT22;3055;50.886;14.814;2023-07-16T03:01:48;22.60;69.20
6054;DHT22;3055;50.886;14.814;2023-07-16T03:04:15;22.60;90.80
6054;DHT22;3055;50.886;14.814;2023-07-16T03:06:42;22.60;88.40
6054;DHT22;3055;50.886;14.814;2023-07-16T03:09:09;22.70;58.60
6054;DHT22;3055;50.886;14.814;2023-07-16T03:11:36;22.90;21.30
6054;DHT22;3055;50.886;14.814;2023-07-16T03:14:05;22.90;26.30
6054;DHT22;3055;50.886;14.814;2023-07-16T03:16:32;23.00;34.30
6054;DHT22;3055;50.886;14.814;2023-07-16T03:18:59;23.10;3.00
6054;DHT22;3055;50.886;14.814;2023-07-16T03:21:26;23.00;9.10
6054;DHT22;3055;50.886;14.814;2023-07-16T03:23:53;23.10;21.90
6054;DHT22;3055;50.886;14.814;2023-07-16T03:26:20;23.10;28.80
6054;DHT22;3055;50.886;14.814;2023-07-16T03:28:47;23.00;60.70
6054;DHT22;3055;50.886;14.814;2023-07-16T03:31:16;23.10;61.30
6054;DHT22;3055;50.886;14.814;2023-07-16T03:33:43;23.10;91.60
6054;DHT22;3055;50.886;14.814;2023-07-16T03:36:10;23.20;99.90
6054;DHT22;3055;50.886;14.814;2023-07-16T03:38:37;23.20;71.90
6054;DHT22;3055;50.886;14.814;2023-07-16T03:41:04;23.30;44.00
6054;DHT22;3055;50.886;14.814;2023-07-16T03:43:31;23.40;15.20
6054;DHT22;3055;50.886;14.814;2023-07-16T03:45:58;23.50;12.80
6054;DHT22;3055;50.886;14.814;2023-07-16T03:48:26;23.50;3.80
6054;DHT22;3055;50.886;14.814;2023-07-16T03:50:53;23.50;1.00
6054;DHT22;3055;50.886;14.814;2023-07-16T03:53:21;23.50;1.00
6054;DHT22;3055;50.886;14.814;2023-07-16T03:55:48;23.60;1.00
6054;DHT22;3055;50.886;14.814;2023-07-16T03:58:15;23.70;1.00
6054;DHT22;3055;50.886;14.814;2023-07-16T04:00:42;23.60;1.00
6054;DHT22;3055;50.886;14.814;2023-07-16T04:03:10;23.60;1.00
6054;DHT22;3055;50.886;14.814;2023-07-16T04:05:38;23.70;1.00
6054;DHT22;3055;50.886;14.814;2023-07-16T04:08:05;23.70;1.00
6054;DHT22;3055;50.886;14.814;2023-07-16T04:10:34;23.60;1.00
6054;DHT22;3055;50.886;14.814;2023-07-16T04:13:01;23.60;1.00
6054;DHT22;3055;50.886;14.814;2023-07-16T04:15:28;23.50;1.00
6054;DHT22;3055;50.886;14.814;2023-07-16T04:17:55;23.50;1.00
6054;DHT22;3055;50.886;14.814;2023-07-16T04:20:22;23.40;1.00
6054;DHT22;3055;50.886;14.814;2023-07-16T04:22:51;23.40;1.00
6054;DHT22;3055;50.886;14.814;2023-07-16T04:25:19;23.40;4.20
6054;DHT22;3055;50.886;14.814;2023-07-16T04:27:46;23.40;1.00
6054;DHT22;3055;50.886;14.814;2023-07-16T04:30:13;23.30;4.70
6054;DHT22;3055;50.886;14.814;2023-07-16T04:32:40;23.30;21.10
6054;DHT22;3055;50.886;14.814;2023-07-16T04:35:07;23.30;18.50
6054;DHT22;3055;50.886;14.814;2023-07-16T04:37:35;23.30;28.90
6054;DHT22;3055;50.886;14.814;2023-07-16T04:40:04;23.40;24.40
6054;DHT22;3055;50.886;14.814;2023-07-16T04:42:31;23.50;13.60
6054;DHT22;3055;50.886;14.814;2023-07-16T04:44:58;23.60;3.60
6054;DHT22;3055;50.886;14.814;2023-07-16T04:47:25;23.80;1.00
6054;DHT22;3055;50.886;14.814;2023-07-16T04:49:53;24.00;1.00
6054;DHT22;3055;50.886;14.814;2023-07-16T04:52:20;24.00;1.00
6054;DHT22;3055;50.886;14.814;2023-07-16T04:54:47;24.10;1.00
6054;DHT22;3055;50.886;14.814;2023-07-16T04:57:16;24.10;1.00
6054;DHT22;3055;50.886;14.814;2023-07-16T04:59:43;24.00;1.00
6054;DHT22;3055;50.886;14.814;2023-07-16T05:02:10;23.80;1.00
6054;DHT22;3055;50.886;14.814;2023-07-16T05:04:38;23.70;1.00
6054;DHT22;3055;50.886;14.814;2023-07-16T05:07:05;23.50;32.50
6054;DHT22;3055;50.886;14.814;2023-07-16T05:09:32;23.30;99.90
6054;DHT22;3055;50.886;14.814;2023-07-16T05:11:59;23.20;99.90
6054;DHT22;3055;50.886;14.814;2023-07-16T05:14:28;23.20;99.90
6054;DHT22;3055;50.886;14.814;2023-07-16T05:16:56;23.20;99.90
6054;DHT22;3055;50.886;14.814;2023-07-16T05:19:23;23.30;99.90
6054;DHT22;3055;50.886;14.814;2023-07-16T05:21:50;23.30;99.90
6054;DHT22;3055;50.886;14.814;2023-07-16T05:24:17;23.30;99.90
6054;DHT22;3055;50.886;14.814;2023-07-16T05:26:44;23.20;99.90
6054;DHT22;3055;50.886;14.814;2023-07-16T05:29:11;23.20;99.90
6054;DHT22;3055;50.886;14.814;2023-07-16T05:31:41;23.10;1.00
6054;DHT22;3055;50.886;14.814;2023-07-16T05:34:09;23.10;99.90
6054;DHT22;3055;50.886;14.814;2023-07-16T05:36:36;23.00;1.00
6054;DHT22;3055;50.886;14.814;2023-07-16T05:39:03;22.90;1.00
6054;DHT22;3055;50.886;14.814;2023-07-16T05:41:30;22.80;99.90
6054;DHT22;3055;50.886;14.814;2023-07-16T05:43:57;22.70;99.90
6054;DHT22;3055;50.886;14.814;2023-07-16T05:46:24;22.50;74.10
6054;DHT22;3055;50.886;14.814;2023-07-16T05:48:52;22.20;3.20
6054;DHT22;3055;50.886;14.814;2023-07-16T05:51:19;21.80;1.00
6054;DHT22;3055;50.886;14.814;2023-07-16T05:53:47;21.60;1.00
6054;DHT22;3055;50.886;14.814;2023-07-16T05:56:14;21.50;1.00
6054;DHT22;3055;50.886;14.814;2023-07-16T05:58:44;21.40;1.00
6054;DHT22;3055;50.886;14.814;2023-07-16T06:01:11;21.30;1.00
6054;DHT22;3055;50.886;14.814;2023-07-16T06:03:38;21.20;1.00
6054;DHT22;3055;50.886;14.814;2023-07-16T06:06:08;21.10;32.70
6054;DHT22;3055;50.886;14.814;2023-07-16T06:08:35;21.00;70.90
6054;DHT22;3055;50.886;14.814;2023-07-16T06:11:02;20.90;66.20
6054;DHT22;3055;50.886;14.814;2023-07-16T06:13:29;20.80;99.90
6054;DHT22;3055;50.886;14.814;2023-07-16T06:15:57;20.70;99.90
6054;DHT22;3055;50.886;14.814;2023-07-16T06:18:24;20.60;99.90
6054;DHT22;3055;50.886;14.814;2023-07-16T06:20:51;20.60;99.90
6054;DHT22;3055;50.886;14.814;2023-07-16T06:23:22;20.60;99.90
6054;DHT22;3055;50.886;14.814;2023-07-16T06:25:54;20.50;99.90
6054;DHT22;3055;50.886;14.814;2023-07-16T06:28:21;20.40;99.90
6054;DHT22;3055;50.886;14.814;2023-07-16T06:30:48;20.40;99.90
6054;DHT22;3055;50.886;14.814;2023-07-16T06:33:17;20.40;99.90
6054;DHT22;3055;50.886;14.814;2023-07-16T06:35:45;20.40;99.90
6054;DHT22;3055;50.886;14.814;2023-07-16T06:38:13;20.40;99.90
6054;DHT22;3055;50.886;14.814;2023-07-16T06:40:46;20.60;99.90
6054;DHT22;3055;50.886;14.814;2023-07-16T06:43:13;20.70;99.90
6054;DHT22;3055;50.886;14.814;2023-07-16T06:45:41;20.90;99.90
6054;DHT22;3055;50.886;14.814;2023-07-16T06:48:08;21.10;99.90
6054;DHT22;3055;50.886;14.814;2023-07-16T06:50:35;21.20;99.90
6054;DHT22;3055;50.886;14.814;2023-07-16T06:53:02;21.30;99.90
6054;DHT22;3055;50.886;14.814;2023-07-16T06:55:29;21.30;99.90
6054;DHT22;3055;50.886;14.814;2023-07-16T06:57:58;21.50;99.90
6054;DHT22;3055;50.886;14.814;2023-07-16T07:00:25;21.70;99.90
6054;DHT22;3055;50.886;14.814;2023-07-16T07:02:52;21.80;99.90
6054;DHT22;3055;50.886;14.814;2023-07-16T07:05:19;22.00;78.70
6054;DHT22;3055;50.886;14.814;2023-07-16T07:07:47;22.20;53.90
6054;DHT22;3055;50.886;14.814;2023-07-16T07:10:14;22.40;49.70
6054;DHT22;3055;50.886;14.814;2023-07-16T07:12:41;22.60;8.90
6054;DHT22;3055;50.886;14.814;2023-07-16T07:15:10;22.70;1.00
6054;DHT22;3055;50.886;14.814;2023-07-16T07:17:37;22.70;1.00
6054;DHT22;3055;50.886;14.814;2023-07-16T07:20:05;22.80;1.00
6054;DHT22;3055;50.886;14.814;2023-07-16T07:22:32;22.80;1.00
6054;DHT22;3055;50.886;14.814;2023-07-16T07:24:59;22.80;1.00
6054;DHT22;3055;50.886;14.814;2023-07-16T07:27:27;22.80;1.00
6054;DHT22;3055;50.886;14.814;2023-07-16T07:29:54;22.90;1.00
6054;DHT22;3055;50.886;14.814;2023-07-16T07:32:23;23.00;1.00
6054;DHT22;3055;50.886;14.814;2023-07-16T07:34:50;23.20;1.00
6054;DHT22;3055;50.886;14.814;2023-07-16T07:37:17;23.30;99.90
6054;DHT22;3055;50.886;14.814;2023-07-16T07:39:44;23.40;99.90
6054;DHT22;3055;50.886;14.814;2023-07-16T07:42:13;23.50;99.90
6054;DHT22;3055;50.886;14.814;2023-07-16T07:44:40;23.50;1.00
6054;DHT22;3055;50.886;14.814;2023-07-16T07:47:07;23.50;99.90
6054;DHT22;3055;50.886;14.814;2023-07-16T07:49:36;23.50;1.00
6054;DHT22;3055;50.886;14.814;2023-07-16T07:52:04;23.60;99.90
6054;DHT22;3055;50.886;14.814;2023-07-16T07:54:31;23.80;1.00
6054;DHT22;3055;50.886;14.814;2023-07-16T07:57:01;24.10;1.00
6054;DHT22;3055;50.886;14.814;2023-07-16T07:59:30;24.40;99.90
6054;DHT22;3055;50.886;14.814;2023-07-16T08:01:57;24.60;99.90
6054;DHT22;3055;50.886;14.814;2023-07-16T08:04:25;24.80;1.00
6054;DHT22;3055;50.886;14.814;2023-07-16T08:06:54;25.00;99.90
6054;DHT22;3055;50.886;14.814;2023-07-16T08:09:21;25.20;99.90
6054;DHT22;3055;50.886;14.814;2023-07-16T08:11:48;25.30;99.90
6054;DHT22;3055;50.886;14.814;2023-07-16T08:14:15;25.20;99.90
6054;DHT22;3055;50.886;14.814;2023-07-16T08:16:42;25.20;1.00
6054;DHT22;3055;50.886;14.814;2023-07-16T08:19:09;25.30;1.00
6054;DHT22;3055;50.886;14.814;2023-07-16T08:21:36;25.30;1.00
6054;DHT22;3055;50.886;14.814;2023-07-16T08:24:06;25.00;15.90
6054;DHT22;3055;50.886;14.814;2023-07-16T08:26:33;24.90;99.90
6054;DHT22;3055;50.886;14.814;2023-07-16T08:29:00;25.00;99.90
6054;DHT22;3055;50.886;14.814;2023-07-16T08:31:28;25.10;99.90
6054;DHT22;3055;50.886;14.814;2023-07-16T08:33:55;25.20;63.80
6054;DHT22;3055;50.886;14.814;2023-07-16T08:36:22;25.20;1.00
6054;DHT22;3055;50.886;14.814;2023-07-16T08:38:50;25.20;99.90
6054;DHT22;3055;50.886;14.814;2023-07-16T08:41:18;25.40;1.00
6054;DHT22;3055;50.886;14.814;2023-07-16T08:43:46;25.30;99.90
6054;DHT22;3055;50.886;14.814;2023-07-16T08:46:14;25.10;99.90
6054;DHT22;3055;50.886;14.814;2023-07-16T08:48:42;25.00;99.90
6054;DHT22;3055;50.886;14.814;2023-07-16T08:51:10;25.00;99.90
6054;DHT22;3055;50.886;14.814;2023-07-16T08:53:37;25.00;99.90
6054;DHT22;3055;50.886;14.814;2023-07-16T08:56:04;25.10;99.90
6054;DHT22;3055;50.886;14.814;2023-07-16T08:58:33;25.20;99.90
6054;DHT22;3055;50.886;14.814;2023-07-16T09:01:01;25.20;99.90
6054;DHT22;3055;50.886;14.814;2023-07-16T09:03:28;25.10;99.90
6054;DHT22;3055;50.886;14.814;2023-07-16T09:05:55;25.20;99.90
6054;DHT22;3055;50.886;14.814;2023-07-16T09:08:23;25.40;94.50
6054;DHT22;3055;50.886;14.814;2023-07-16T09:10:55;25.40;97.00
6054;DHT22;3055;50.886;14.814;2023-07-16T09:13:22;25.40;1.00
6054;DHT22;3055;50.886;14.814;2023-07-16T09:15:54;25.40;1.00
6054;DHT22;3055;50.886;14.814;2023-07-16T09:18:22;25.40;21.40
6054;DHT22;3055;50.886;14.814;2023-07-16T09:20:54;25.50;1.00
6054;DHT22;3055;50.886;14.814;2023-07-16T09:23:24;25.60;1.00
6054;DHT22;3055;50.886;14.814;2023-07-16T09:25:53;25.60;1.00
6054;DHT22;3055;50.886;14.814;2023-07-16T09:28:20;25.50;1.00
6054;DHT22;3055;50.886;14.814;2023-07-16T09:30:47;25.50;1.00
6054;DHT22;3055;50.886;14.814;2023-07-16T09:33:17;25.60;1.00
6054;DHT22;3055;50.886;14.814;2023-07-16T09:35:47;25.60;1.00
6054;DHT22;3055;50.886;14.814;2023-07-16T09:38:15;25.70;1.00
6054;DHT22;3055;50.886;14.814;2023-07-16T09:40:43;25.80;1.00
6054;DHT22;3055;50.886;14.814;2023-07-16T09:43:12;25.90;1.00
6054;DHT22;3055;50.886;14.814;2023-07-16T09:45:40;26.00;1.00
6054;DHT22;3055;50.886;14.814;2023-07-16T09:48:08;26.00;1.00
6054;DHT22;3055;50.886;14.814;2023-07-16T09:50:37;26.00;99.90
6054;DHT22;3055;50.886;14.814;2023-07-16T09:53:05;26.00;99.90
6054;DHT22;3055;50.886;14.814;2023-07-16T09:55:34;26.20;99.90
6054;DHT22;3055;50.886;14.814;2023-07-16T09:58:06;26.30;99.90
6054;DHT22;3055;50.886;14.814;2023-07-16T10:00:36;26.50;99.90
6054;DHT22;3055;50.886;14.814;2023-07-16T10:03:06;26.60;99.90
6054;DHT22;3055;50.886;14.814;2023-07-16T10:05:37;27.00;99.90
6054;DHT22;3055;50.886;14.814;2023-07-16T10:08:14;27.20;99.90
6054;DHT22;3055;50.886;14.814;2023-07-16T10:10:43;27.20;99.90
6054;DHT22;3055;50.886;14.814;2023-07-16T10:13:12;27.30;99.90
6054;DHT22;3055;50.886;14.814;2023-07-16T10:15:51;27.60;99.90
6054;DHT22;3055;50.886;14.814;2023-07-16T10:18:26;27.90;99.90
6054;DHT22;3055;50.886;14.814;2023-07-16T10:21:03;27.90;99.90
6054;DHT22;3055;50.886;14.814;2023-07-16T10:23:38;27.90;99.90
6054;DHT22;3055;50.886;14.814;2023-07-16T10:26:07;27.70;99.90
6054;DHT22;3055;50.886;14.814;2023-07-16T10:28:36;27.60;99.90
6054;DHT22;3055;50.886;14.814;2023-07-16T10:31:04;27.70;99.90
6054;DHT22;3055;50.886;14.814;2023-07-16T10:33:31;27.60;91.50
6054;DHT22;3055;50.886;14.814;2023-07-16T10:35:59;27.60;99.00
6054;DHT22;3055;50.886;14.814;2023-07-16T10:38:28;27.60;99.00
6054;DHT22;3055;50.886;14.814;2023-07-16T10:40:56;27.70;97.40
6054;DHT22;3055;50.886;14.814;2023-07-16T10:43:24;27.50;91.30
6054;DHT22;3055;50.886;14.814;2023-07-16T10:45:52;27.60;95.30
6054;DHT22;3055;50.886;14.814;2023-07-16T10:48:24;27.50;90.20
6054;DHT22;3055;50.886;14.814;2023-07-16T10:50:53;27.60;96.10
6054;DHT22;3055;50.886;14.814;2023-07-16T10:53:21;27.70;95.40
6054;DHT22;3055;50.886;14.814;2023-07-16T10:55:49;27.60;89.60
6054;DHT22;3055;50.886;14.814;2023-07-16T10:58:16;27.40;89.60
6054;DHT22;3055;50.886;14.814;2023-07-16T11:00:44;27.40;92.80
6054;DHT22;3055;50.886;14.814;2023-07-16T11:03:14;27.10;99.90
6054;DHT22;3055;50.886;14.814;2023-07-16T11:05:45;26.90;99.90
6054;DHT22;3055;50.886;14.814;2023-07-16T11:08:21;26.70;99.90
6054;DHT22;3055;50.886;14.814;2023-07-16T11:10:55;26.70;99.90
6054;DHT22;3055;50.886;14.814;2023-07-16T11:13:26;26.70;99.90
6054;DHT22;3055;50.886;14.814;2023-07-16T11:15:53;26.50;99.90
6054;DHT22;3055;50.886;14.814;2023-07-16T11:18:22;26.30;99.90
6054;DHT22;3055;50.886;14.814;2023-07-16T11:20:51;26.20;99.90
6054;DHT22;3055;50.886;14.814;2023-07-16T11:23:18;26.20;99.90
6054;DHT22;3055;50.886;14.814;2023-07-16T11:25:49;26.40;99.90
6054;DHT22;3055;50.886;14.814;2023-07-16T11:28:17;26.40;99.90
6054;DHT22;3055;50.886;14.814;2023-07-16T11:30:44;26.50;99.90
6054;DHT22;3055;50.886;14.814;2023-07-16T11:33:12;26.40;99.90
6054;DHT22;3055;50.886;14.814;2023-07-16T11:35:40;26.40;99.90
6054;DHT22;3055;50.886;14.814;2023-07-16T11:38:07;26.40;99.90
6054;DHT22;3055;50.886;14.814;2023-07-16T11:40:35;26.40;99.90
6054;DHT22;3055;50.886;14.814;2023-07-16T11:43:08;26.40;99.90
6054;DHT22;3055;50.886;14.814;2023-07-16T11:45:38;26.30;99.90
6054;DHT22;3055;50.886;14.814;2023-07-16T11:48:05;26.30;99.90
6054;DHT22;3055;50.886;14.814;2023-07-16T11:50:33;26.30;99.90
6054;DHT22;3055;50.886;14.814;2023-07-16T11:53:01;26.50;99.90
6054;DHT22;3055;50.886;14.814;2023-07-16T11:55:28;26.50;99.90
6054;DHT22;3055;50.886;14.814;2023-07-16T11:57:55;26.50;91.70
6054;DHT22;3055;50.886;14.814;2023-07-16T12:00:25;26.70;99.90
6054;DHT22;3055;50.886;14.814;2023-07-16T12:02:54;26.80;92.80
6054;DHT22;3055;50.886;14.814;2023-07-16T12:05:22;26.80;61.80
6054;DHT22;3055;50.886;14.814;2023-07-16T12:07:50;26.60;84.00
6054;DHT22;3055;50.886;14.814;2023-07-16T12:10:17;26.40;76.60
6054;DHT22;3055;50.886;14.814;2023-07-16T12:12:44;26.40;70.50
6054;DHT22;3055;50.886;14.814;2023-07-16T12:15:11;26.40;60.60
6054;DHT22;3055;50.886;14.814;2023-07-16T12:17:38;26.50;56.60
6054;DHT22;3055;50.886;14.814;2023-07-16T12:20:07;26.50;46.40
6054;DHT22;3055;50.886;14.814;2023-07-16T12:22:35;26.40;50.40
6054;DHT22;3055;50.886;14.814;2023-07-16T12:25:02;26.40;43.90
6054;DHT22;3055;50.886;14.814;2023-07-16T12:27:29;26.40;35.90
6054;DHT22;3055;50.886;14.814;2023-07-16T12:29:56;26.50;28.40
6054;DHT22;3055;50.886;14.814;2023-07-16T12:32:24;26.60;16.70
6054;DHT22;3055;50.886;14.814;2023-07-16T12:34:51;26.80;19.90
6054;DHT22;3055;50.886;14.814;2023-07-16T12:37:19;27.00;14.80
6054;DHT22;3055;50.886;14.814;2023-07-16T12:39:46;27.30;4.50
6054;DHT22;3055;50.886;14.814;2023-07-16T12:42:13;27.60;1.00
6054;DHT22;3055;50.886;14.814;2023-07-16T12:44:40;27.80;1.00
6054;DHT22;3055;50.886;14.814;2023-07-16T12:47:07;27.80;1.00
6054;DHT22;3055;50.886;14.814;2023-07-16T12:49:35;27.80;1.00
6054;DHT22;3055;50.886;14.814;2023-07-16T12:52:02;28.00;1.00
6054;DHT22;3055;50.886;14.814;2023-07-16T12:54:31;28.10;1.00
6054;DHT22;3055;50.886;14.814;2023-07-16T12:56:58;28.10;1.00
6054;DHT22;3055;50.886;14.814;2023-07-16T12:59:25;28.10;1.00
6054;DHT22;3055;50.886;14.814;2023-07-16T13:01:52;27.90;1.00
6054;DHT22;3055;50.886;14.814;2023-07-16T13:04:19;28.10;1.00
6054;DHT22;3055;50.886;14.814;2023-07-16T13:06:46;28.50;1.00
6054;DHT22;3055;50.886;14.814;2023-07-16T13:09:14;28.50;1.00
6054;DHT22;3055;50.886;14.814;2023-07-16T13:11:43;28.80;1.00
6054;DHT22;3055;50.886;14.814;2023-07-16T13:14:10;28.80;1.00
6054;DHT22;3055;50.886;14.814;2023-07-16T13:16:37;28.60;1.00
6054;DHT22;3055;50.886;14.814;2023-07-16T13:19:04;28.60;1.00
6054;DHT22;3055;50.886;14.814;2023-07-16T13:21:32;28.40;1.00
6054;DHT22;3055;50.886;14.814;2023-07-16T13:23:59;28.10;1.00
6054;DHT22;3055;50.886;14.814;2023-07-16T13:26:26;28.10;1.00
6054;DHT22;3055;50.886;14.814;2023-07-16T13:28:54;28.20;1.00
6054;DHT22;3055;50.886;14.814;2023-07-16T13:31:21;28.20;1.00
6054;DHT22;3055;50.886;14.814;2023-07-16T13:33:49;28.10;1.00
6054;DHT22;3055;50.886;14.814;2023-07-16T13:36:16;28.30;1.00
6054;DHT22;3055;50.886;14.814;2023-07-16T13:38:43;28.70;1.00
6054;DHT22;3055;50.886;14.814;2023-07-16T13:41:10;28.80;1.00
6054;DHT22;3055;50.886;14.814;2023-07-16T13:43:37;28.80;1.00
6054;DHT22;3055;50.886;14.814;2023-07-16T13:46:05;28.90;1.00
6054;DHT22;3055;50.886;14.814;2023-07-16T13:48:32;29.00;1.00
6054;DHT22;3055;50.886;14.814;2023-07-16T13:50:59;29.10;1.00
6054;DHT22;3055;50.886;14.814;2023-07-16T13:53:27;29.00;1.00
6054;DHT22;3055;50.886;14.814;2023-07-16T13:55:54;29.20;1.00
6054;DHT22;3055;50.886;14.814;2023-07-16T13:58:21;29.50;1.00
6054;DHT22;3055;50.886;14.814;2023-07-16T14:00:48;29.90;1.00
6054;DHT22;3055;50.886;14.814;2023-07-16T14:03:17;30.40;1.00
6054;DHT22;3055;50.886;14.814;2023-07-16T14:05:44;30.70;1.00
6054;DHT22;3055;50.886;14.814;2023-07-16T14:08:11;30.80;1.00
6054;DHT22;3055;50.886;14.814;2023-07-16T14:10:38;30.70;1.00
6054;DHT22;3055;50.886;14.814;2023-07-16T14:13:05;30.80;1.00
6054;DHT22;3055;50.886;14.814;2023-07-16T14:15:32;31.10;1.00
6054;DHT22;3055;50.886;14.814;2023-07-16T14:17:59;31.50;1.00
6054;DHT22;3055;50.886;14.814;2023-07-16T14:20:28;31.60;1.00
6054;DHT22;3055;50.886;14.814;2023-07-16T14:22:55;31.60;1.00
6054;DHT22;3055;50.886;14.814;2023-07-16T14:25:22;31.40;1.00
6054;DHT22;3055;50.886;14.814;2023-07-16T14:27:49;31.40;1.00
6054;DHT22;3055;50.886;14.814;2023-07-16T14:30:16;31.80;1.00
6054;DHT22;3055;50.886;14.814;2023-07-16T14:32:43;32.30;1.00
6054;DHT22;3055;50.886;14.814;2023-07-16T14:35:10;32.80;1.00
6054;DHT22;3055;50.886;14.814;2023-07-16T14:37:39;33.10;1.00
6054;DHT22;3055;50.886;14.814;2023-07-16T14:40:07;33.40;1.00
6054;DHT22;3055;50.886;14.814;2023-07-16T14:42:35;33.30;1.00
6054;DHT22;3055;50.886;14.814;2023-07-16T14:45:02;33.00;1.00
6054;DHT22;3055;50.886;14.814;2023-07-16T14:47:30;32.90;1.00
6054;DHT22;3055;50.886;14.814;2023-07-16T14:49:57;32.80;1.00
6054;DHT22;3055;50.886;14.814;2023-07-16T14:52:24;32.70;1.00
6054;DHT22;3055;50.886;14.814;2023-07-16T14:54:53;32.80;1.00
6054;DHT22;3055;50.886;14.814;2023-07-16T14:57:21;33.10;1.00
6054;DHT22;3055;50.886;14.814;2023-07-16T14:59:48;33.10;1.00
6054;DHT22;3055;50.886;14.814;2023-07-16T15:02:15;33.20;1.00
6054;DHT22;3055;50.886;14.814;2023-07-16T15:04:42;33.20;1.00
6054;DHT22;3055;50.886;14.814;2023-07-16T15:07:09;33.50;1.00
6054;DHT22;3055;50.886;14.814;2023-07-16T15:09:36;33.70;1.00
6054;DHT22;3055;50.886;14.814;2023-07-16T15:12:09;34.00;1.00
6054;DHT22;3055;50.886;14.814;2023-07-16T15:14:36;34.60;1.00
6054;DHT22;3055;50.886;14.814;2023-07-16T15:17:04;34.80;1.00
6054;DHT22;3055;50.886;14.814;2023-07-16T15:19:33;34.50;1.00
6054;DHT22;3055;50.886;14.814;2023-07-16T15:22:01;34.10;1.00
6054;DHT22;3055;50.886;14.814;2023-07-16T15:24:28;34.00;1.00
6054;DHT22;3055;50.886;14.814;2023-07-16T15:26:57;34.10;1.00
6054;DHT22;3055;50.886;14.814;2023-07-16T15:29:26;34.50;1.00
6054;DHT22;3055;50.886;14.814;2023-07-16T15:31:53;35.00;1.00
6054;DHT22;3055;50.886;14.814;2023-07-16T15:34:23;35.60;99.90
6054;DHT22;3055;50.886;14.814;2023-07-16T15:36:50;36.00;99.90
6054;DHT22;3055;50.886;14.814;2023-07-16T15:39:17;36.10;99.90
6054;DHT22;3055;50.886;14.814;2023-07-16T15:41:44;36.00;99.90
6054;DHT22;3055;50.886;14.814;2023-07-16T15:44:11;35.40;99.90
6054;DHT22;3055;50.886;14.814;2023-07-16T15:46:40;34.90;99.90
6054;DHT22;3055;50.886;14.814;2023-07-16T15:49:10;34.80;99.90
6054;DHT22;3055;50.886;14.814;2023-07-16T15:51:37;35.00;99.90
6054;DHT22;3055;50.886;14.814;2023-07-16T15:54:07;35.20;99.90
6054;DHT22;3055;50.886;14.814;2023-07-16T15:56:34;35.40;99.90
6054;DHT22;3055;50.886;14.814;2023-07-16T15:59:01;35.60;99.90